createdAt,value
2022-10-09T03:36:08.201Z,100
2022-10-09T03:41:09.976Z,100
2022-10-09T03:46:11.752Z,100
2022-10-09T03:51:13.660Z,100
2022-10-09T03:56:15.287Z,100
2022-10-09T04:01:17.212Z,100
2022-10-09T04:06:19.068Z,100
2022-10-09T04:11:20.759Z,100
2022-10-09T04:16:22.617Z,100
2022-10-09T04:21:24.596Z,100
2022-10-09T04:26:26.172Z,100
2022-10-09T04:31:27.980Z,100
2022-10-09T04:36:29.856Z,100
2022-10-09T04:41:38.393Z,100
2022-10-09T04:46:40.319Z,100
2022-10-09T04:51:43.003Z,100
2022-10-09T04:56:44.615Z,100
2022-10-09T05:01:46.490Z,100
2022-10-09T05:06:48.485Z,100
2022-10-09T05:11:50.232Z,100
2022-10-09T05:21:58.012Z,100
2022-10-09T05:26:59.720Z,100
2022-10-09T05:32:01.505Z,100
2022-10-09T05:37:03.538Z,100
2022-10-09T05:42:05.165Z,100
2022-10-09T05:47:06.898Z,100
2022-10-09T05:52:08.553Z,100
2022-10-09T05:57:10.220Z,100
2022-10-09T06:02:11.970Z,100
2022-10-09T06:07:13.935Z,100
2022-10-09T06:12:15.661Z,100
2022-10-09T06:17:17.329Z,100
2022-10-09T06:22:18.947Z,100
2022-10-09T06:27:20.490Z,100
2022-10-09T06:32:22.192Z,100
2022-10-09T06:37:23.854Z,100
2022-10-09T06:42:25.535Z,100
2022-10-09T06:47:27.222Z,100
2022-10-09T06:52:28.794Z,100
2022-10-09T06:57:30.440Z,100
2022-10-09T07:02:32.515Z,100
2022-10-09T07:07:38.213Z,100
2022-10-09T07:12:39.896Z,100
2022-10-09T07:17:41.586Z,100
2022-10-09T07:22:43.226Z,100
2022-10-09T07:27:44.887Z,100
2022-10-09T07:32:47.406Z,100
2022-10-09T07:37:50.817Z,100
2022-10-09T07:42:52.510Z,100
2022-10-09T07:47:54.198Z,100
2022-10-09T07:52:55.838Z,95.17
2022-10-09T07:57:57.613Z,95.17
2022-10-09T08:02:59.346Z,97.31
2022-10-09T08:08:01.266Z,97.31
2022-10-09T08:13:02.939Z,92.23
2022-10-09T08:18:04.665Z,92.23
2022-10-09T08:23:06.266Z,92.7
2022-10-09T08:28:08.280Z,85.68
2022-10-09T08:33:10.170Z,85.68
2022-10-09T08:43:19.049Z,85.06
2022-10-09T08:48:22.976Z,84.01
2022-10-09T08:53:30.327Z,84.01
2022-10-09T08:58:33.363Z,79.64
2022-10-09T09:03:42.075Z,79.64
2022-10-09T09:08:48.350Z,76.07
2022-10-09T09:13:56.553Z,76.07
2022-10-09T09:24:12.088Z,74.8
2022-10-09T09:29:15.374Z,74.28
2022-10-09T09:34:20.163Z,74.28
2022-10-09T09:44:29.876Z,64.98
2022-10-09T09:49:31.539Z,64.98
2022-10-09T09:54:33.430Z,60.64
2022-10-09T09:59:36.773Z,60.64
2022-10-09T10:09:43.847Z,62.54
2022-10-09T10:14:49.420Z,56.14
2022-10-09T10:19:50.961Z,56.14
2022-10-09T10:24:55.086Z,58.19
2022-10-09T10:29:58.780Z,58.19
2022-10-09T10:35:02.610Z,57.6
2022-10-09T10:40:06.788Z,57.6
2022-10-09T10:45:12.473Z,56.14
2022-10-09T10:50:15.281Z,56.14
2022-10-09T10:55:22.866Z,58.43
2022-10-09T11:00:24.501Z,57.37
2022-10-09T11:05:30.201Z,57.37
2022-10-09T11:10:35.856Z,54.39
2022-10-09T11:15:42.474Z,54.39
2022-10-09T11:20:52.587Z,57.3
2022-10-09T11:25:58.213Z,57.3
2022-10-09T11:31:03.417Z,53.42
2022-10-09T11:41:11.092Z,51.46
2022-10-09T11:51:22.310Z,54.79
2022-10-09T11:56:25.243Z,54.79
2022-10-09T12:01:30.951Z,54.08
2022-10-09T12:11:38.234Z,50.29
2022-10-09T12:16:41.154Z,51.93
2022-10-09T12:21:46.652Z,51.93
2022-10-09T12:26:49.482Z,46.85
2022-10-09T12:31:53.651Z,46.85
2022-10-09T12:42:07.858Z,47.8
2022-10-09T12:47:14.888Z,44.91
2022-10-09T12:52:16.617Z,44.91
2022-10-09T12:57:18.639Z,46.09
2022-10-09T13:02:26.668Z,46.09
2022-10-09T13:07:29.568Z,42.41
2022-10-09T13:12:31.762Z,45.49
2022-10-09T13:17:34.579Z,45.49
2022-10-09T13:22:36.529Z,47.05
2022-10-09T13:27:38.835Z,47.05
2022-10-09T13:32:40.523Z,45.68
2022-10-09T13:37:42.413Z,45.68
2022-10-09T13:42:47.554Z,46.93
2022-10-09T13:47:49.942Z,46.93
2022-10-09T13:52:53.043Z,40.41
2022-10-09T13:57:54.976Z,40.41
2022-10-09T14:02:57.081Z,42.29
2022-10-09T14:07:58.929Z,42.29
2022-10-09T14:13:00.455Z,41.46
2022-10-09T14:18:02.109Z,41.46
2022-10-09T14:23:03.917Z,44.08
2022-10-09T14:28:05.958Z,40.05
2022-10-09T14:33:07.861Z,40.05
2022-10-09T14:38:09.494Z,42.01
2022-10-09T14:43:11.314Z,42.01
2022-10-09T14:48:12.945Z,51.11
2022-10-09T14:53:14.616Z,51.11
2022-10-09T14:58:16.874Z,49.86
2022-10-09T15:03:19.202Z,49.86
2022-10-09T15:08:21.242Z,53.11
2022-10-09T15:13:23.126Z,53.11
2022-10-09T15:18:24.937Z,57.82
2022-10-09T15:23:27.087Z,57.82
2022-10-09T15:28:28.843Z,61.18
2022-10-09T15:33:30.866Z,61.18
2022-10-09T15:38:32.557Z,66.51
2022-10-09T15:48:40.018Z,68.72
2022-10-09T15:53:42.827Z,71.82
2022-10-09T15:58:44.567Z,71.82
2022-10-09T16:03:46.835Z,74.16
2022-10-09T16:08:49.338Z,74.16
2022-10-09T16:13:51.553Z,76.02
2022-10-09T16:18:53.624Z,76.02
2022-10-09T16:23:59.675Z,76.26
2022-10-09T16:29:01.889Z,76.26
2022-10-09T16:34:04.299Z,78.61
2022-10-09T16:39:06.107Z,78.61
2022-10-09T16:44:10.992Z,82.47
2022-10-09T16:49:14.190Z,83.42
2022-10-09T16:54:16.064Z,83.42
2022-10-09T16:59:17.866Z,80.71
2022-10-09T17:04:19.774Z,80.71
2022-10-09T17:09:21.835Z,81.02
2022-10-09T17:14:24.199Z,81.02
2022-10-09T17:19:25.914Z,82.41
2022-10-09T17:24:27.670Z,82.41
2022-10-09T17:29:30.145Z,83.01
2022-10-09T17:34:32.295Z,83.01
2022-10-09T17:39:34.033Z,82.96
2022-10-09T17:44:36.392Z,82.96
2022-10-09T17:49:38.076Z,81.96
2022-10-09T17:54:40.159Z,81.96
2022-10-09T17:59:41.984Z,83.55
2022-10-09T18:04:44.323Z,83.26
2022-10-09T18:09:46.538Z,83.26
2022-10-09T18:14:48.969Z,87.78
2022-10-09T18:19:50.915Z,87.78
2022-10-09T18:24:53.254Z,87.7
2022-10-09T18:29:55.357Z,87.7
2022-10-09T18:34:58.268Z,86.68
2022-10-09T18:40:00.863Z,86.68
2022-10-09T18:45:04.618Z,85.63
2022-10-09T18:50:08.335Z,85.63
2022-10-09T18:55:12.489Z,85.51
2022-10-09T19:00:16.021Z,85.51
2022-10-09T19:05:18.293Z,84.6
2022-10-09T19:10:20.240Z,84.6
2022-10-09T19:15:22.251Z,83.61
2022-10-09T19:20:23.860Z,81.55
2022-10-09T19:25:26.074Z,81.55
2022-10-09T19:30:27.930Z,76.37
2022-10-09T19:35:29.989Z,76.37
2022-10-09T19:40:33.668Z,73.82
2022-10-09T19:45:36.104Z,73.82
2022-10-09T19:50:40.070Z,75.41
2022-10-09T19:55:42.094Z,75.41
2022-10-09T20:00:44.016Z,74.09
2022-10-09T20:05:45.841Z,74.09
2022-10-09T20:10:48.146Z,74.2
2022-10-09T20:15:50.059Z,74.2
2022-10-09T20:20:51.790Z,79.2
2022-10-09T20:25:58.283Z,82.4
2022-10-09T20:31:00.515Z,82.4
2022-10-09T20:36:02.538Z,83.1
2022-10-09T20:41:05.206Z,83.1
2022-10-09T20:46:07.707Z,81.73
2022-10-09T20:51:09.388Z,81.73
2022-10-09T20:56:11.824Z,81.73
2022-10-09T21:01:13.672Z,81.73
2022-10-09T21:06:17.410Z,81.73
2022-10-09T21:11:19.719Z,81.73
2022-10-09T21:16:22.624Z,81.73
2022-10-09T21:21:24.267Z,81.73
2022-10-09T21:26:26.971Z,81.73
2022-10-09T21:31:29.539Z,81.73
2022-10-09T21:36:33.999Z,81.73
2022-10-09T21:41:36.045Z,81.73
